sensor_id;sensor_type;location;lat;lon;timestamp;P1;durP1;ratioP1;P2;durP2;ratioP2
63664;SDS011;49820;33.966;73.390;2023-09-19T03:07:23;4.45;;;2.20;;
63664;SDS011;49820;33.966;73.390;2023-09-19T03:09:53;3.03;;;2.05;;
63664;SDS011;49820;33.966;73.390;2023-09-19T03:12:23;2.97;;;2.10;;
63664;SDS011;49820;33.966;73.390;2023-09-19T03:14:53;2.55;;;1.92;;
63664;SDS011;49820;33.966;73.390;2023-09-19T03:17:23;3.58;;;2.65;;
63664;SDS011;49820;33.966;73.390;2023-09-19T03:19:53;3.22;;;2.35;;
63664;SDS011;49820;33.966;73.390;2023-09-19T03:22:23;3.05;;;2.40;;
63664;SDS011;49820;33.966;73.390;2023-09-19T03:24:53;2.38;;;2.03;;
63664;SDS011;49820;33.966;73.390;2023-09-19T03:27:23;2.35;;;1.83;;
63664;SDS011;49820;33.966;73.390;2023-09-19T03:29:52;3.17;;;2.00;;
63664;SDS011;49820;33.966;73.390;2023-09-19T03:32:22;2.70;;;1.90;;
63664;SDS011;49820;33.966;73.390;2023-09-19T03:34:52;2.00;;;1.60;;
63664;SDS011;49820;33.966;73.390;2023-09-19T03:37:21;3.17;;;1.92;;
63664;SDS011;49820;33.966;73.390;2023-09-19T03:39:51;2.50;;;1.90;;
63664;SDS011;49820;33.966;73.390;2023-09-19T03:42:21;2.35;;;1.73;;
63664;SDS011;49820;33.966;73.390;2023-09-19T03:44:54;3.03;;;2.22;;
63664;SDS011;49820;33.966;73.390;2023-09-19T03:47:23;3.55;;;2.35;;
63664;SDS011;49820;33.966;73.390;2023-09-19T03:49:55;3.42;;;2.40;;
63664;SDS011;49820;33.966;73.390;2023-09-19T03:52:25;2.90;;;2.30;;
63664;SDS011;49820;33.966;73.390;2023-09-19T03:54:55;3.45;;;2.42;;
63664;SDS011;49820;33.966;73.390;2023-09-19T03:57:24;3.35;;;2.58;;
63664;SDS011;49820;33.966;73.390;2023-09-19T03:59:53;3.15;;;2.60;;
63664;SDS011;49820;33.966;73.390;2023-09-19T04:02:24;3.92;;;2.85;;
63664;SDS011;49820;33.966;73.390;2023-09-19T04:04:53;3.38;;;2.67;;
63664;SDS011;49820;33.966;73.390;2023-09-19T04:07:23;3.70;;;2.65;;
63664;SDS011;49820;33.966;73.390;2023-09-19T04:10:11;3.25;;;2.72;;
63664;SDS011;49820;33.966;73.390;2023-09-19T04:12:40;4.25;;;2.83;;
63664;SDS011;49820;33.966;73.390;2023-09-19T04:15:19;4.22;;;2.63;;
63664;SDS011;49820;33.966;73.390;2023-09-19T04:17:53;3.40;;;2.60;;
63664;SDS011;49820;33.966;73.390;2023-09-19T04:20:23;3.20;;;2.22;;
63664;SDS011;49820;33.966;73.390;2023-09-19T04:22:53;3.13;;;2.30;;
63664;SDS011;49820;33.966;73.390;2023-09-19T04:25:24;3.88;;;2.80;;
63664;SDS011;49820;33.966;73.390;2023-09-19T04:27:56;3.70;;;2.70;;
63664;SDS011;49820;33.966;73.390;2023-09-19T04:30:26;4.20;;;3.35;;
63664;SDS011;49820;33.966;73.390;2023-09-19T04:32:55;4.03;;;2.63;;
63664;SDS011;49820;33.966;73.390;2023-09-19T04:35:24;5.23;;;3.27;;
63664;SDS011;49820;33.966;73.390;2023-09-19T04:37:54;4.20;;;2.70;;
63664;SDS011;49820;33.966;73.390;2023-09-19T04:40:24;4.38;;;2.90;;
63664;SDS011;49820;33.966;73.390;2023-09-19T04:42:55;4.25;;;3.15;;
63664;SDS011;49820;33.966;73.390;2023-09-19T04:45:41;4.63;;;3.13;;
63664;SDS011;49820;33.966;73.390;2023-09-19T04:48:27;5.43;;;3.30;;
63664;SDS011;49820;33.966;73.390;2023-09-19T04:50:57;7.47;;;3.47;;
63664;SDS011;49820;33.966;73.390;2023-09-19T04:53:27;4.90;;;3.53;;
63664;SDS011;49820;33.966;73.390;2023-09-19T04:56:14;6.28;;;3.25;;
63664;SDS011;49820;33.966;73.390;2023-09-19T04:59:00;5.93;;;3.40;;
63664;SDS011;49820;33.966;73.390;2023-09-19T05:01:29;4.07;;;2.60;;
63664;SDS011;49820;33.966;73.390;2023-09-19T05:03:59;5.10;;;3.03;;
63664;SDS011;49820;33.966;73.390;2023-09-19T05:06:29;4.00;;;2.93;;
63664;SDS011;49820;33.966;73.390;2023-09-19T05:08:58;5.65;;;3.10;;
63664;SDS011;49820;33.966;73.390;2023-09-19T05:11:28;5.63;;;3.17;;
63664;SDS011;49820;33.966;73.390;2023-09-19T05:13:58;4.65;;;2.80;;
63664;SDS011;49820;33.966;73.390;2023-09-19T05:16:31;4.40;;;2.80;;
63664;SDS011;49820;33.966;73.390;2023-09-19T05:19:18;4.13;;;3.03;;
63664;SDS011;49820;33.966;73.390;2023-09-19T05:21:47;4.97;;;3.20;;
63664;SDS011;49820;33.966;73.390;2023-09-19T05:24:17;6.10;;;3.28;;
63664;SDS011;49820;33.966;73.390;2023-09-19T05:26:47;4.90;;;3.13;;
63664;SDS011;49820;33.966;73.390;2023-09-19T05:29:17;4.50;;;3.45;;
63664;SDS011;49820;33.966;73.390;2023-09-19T05:31:46;6.43;;;3.30;;
63664;SDS011;49820;33.966;73.390;2023-09-19T05:34:16;4.18;;;3.22;;
63664;SDS011;49820;33.966;73.390;2023-09-19T05:36:45;4.22;;;3.30;;
63664;SDS011;49820;33.966;73.390;2023-09-19T05:39:17;5.53;;;3.58;;
63664;SDS011;49820;33.966;73.390;2023-09-19T05:41:47;4.15;;;3.50;;
63664;SDS011;49820;33.966;73.390;2023-09-19T05:44:16;6.95;;;3.67;;
63664;SDS011;49820;33.966;73.390;2023-09-19T05:46:45;8.50;;;4.07;;
63664;SDS011;49820;33.966;73.390;2023-09-19T05:49:17;6.00;;;3.40;;
63664;SDS011;49820;33.966;73.390;2023-09-19T05:51:50;4.40;;;3.10;;
63664;SDS011;49820;33.966;73.390;2023-09-19T05:54:22;5.15;;;3.60;;
63664;SDS011;49820;33.966;73.390;2023-09-19T05:56:51;5.47;;;3.80;;
63664;SDS011;49820;33.966;73.390;2023-09-19T05:59:21;6.03;;;3.93;;
63664;SDS011;49820;33.966;73.390;2023-09-19T06:01:51;4.38;;;3.20;;
63664;SDS011;49820;33.966;73.390;2023-09-19T06:04:20;5.13;;;3.40;;
63664;SDS011;49820;33.966;73.390;2023-09-19T06:06:49;7.72;;;4.38;;
63664;SDS011;49820;33.966;73.390;2023-09-19T06:13:13;6.05;;;3.80;;
63664;SDS011;49820;33.966;73.390;2023-09-19T06:15:43;4.30;;;2.93;;
63664;SDS011;49820;33.966;73.390;2023-09-19T06:18:12;4.97;;;3.80;;
63664;SDS011;49820;33.966;73.390;2023-09-19T06:20:48;4.20;;;3.28;;
63664;SDS011;49820;33.966;73.390;2023-09-19T06:23:19;5.32;;;3.78;;
63664;SDS011;49820;33.966;73.390;2023-09-19T06:25:52;4.22;;;3.60;;
63664;SDS011;49820;33.966;73.390;2023-09-19T06:28:22;5.63;;;3.77;;
63664;SDS011;49820;33.966;73.390;2023-09-19T06:30:52;6.18;;;3.55;;
63664;SDS011;49820;33.966;73.390;2023-09-19T06:33:21;7.07;;;3.65;;
63664;SDS011;49820;33.966;73.390;2023-09-19T06:35:51;4.70;;;3.53;;
63664;SDS011;49820;33.966;73.390;2023-09-19T06:38:27;5.45;;;3.50;;
63664;SDS011;49820;33.966;73.390;2023-09-19T06:40:56;6.20;;;3.80;;
63664;SDS011;49820;33.966;73.390;2023-09-19T06:43:27;7.65;;;4.18;;
63664;SDS011;49820;33.966;73.390;2023-09-19T06:45:59;5.90;;;3.85;;
63664;SDS011;49820;33.966;73.390;2023-09-19T06:48:32;4.80;;;3.87;;
63664;SDS011;49820;33.966;73.390;2023-09-19T06:51:02;4.53;;;3.13;;
63664;SDS011;49820;33.966;73.390;2023-09-19T06:53:50;6.18;;;4.00;;
63664;SDS011;49820;33.966;73.390;2023-09-19T06:56:23;7.35;;;3.95;;
63664;SDS011;49820;33.966;73.390;2023-09-19T06:58:54;7.68;;;4.13;;
63664;SDS011;49820;33.966;73.390;2023-09-19T07:01:24;5.53;;;4.60;;
63664;SDS011;49820;33.966;73.390;2023-09-19T07:03:54;6.30;;;4.35;;
63664;SDS011;49820;33.966;73.390;2023-09-19T07:06:23;5.57;;;4.13;;
63664;SDS011;49820;33.966;73.390;2023-09-19T07:08:53;4.93;;;4.00;;
63664;SDS011;49820;33.966;73.390;2023-09-19T07:11:23;7.90;;;5.40;;
63664;SDS011;49820;33.966;73.390;2023-09-19T07:13:53;9.13;;;5.40;;
63664;SDS011;49820;33.966;73.390;2023-09-19T07:16:23;8.57;;;5.78;;
63664;SDS011;49820;33.966;73.390;2023-09-19T07:18:58;8.97;;;5.77;;
63664;SDS011;49820;33.966;73.390;2023-09-19T07:21:28;8.13;;;5.30;;
63664;SDS011;49820;33.966;73.390;2023-09-19T07:24:01;7.47;;;5.40;;
63664;SDS011;49820;33.966;73.390;2023-09-19T07:26:34;6.47;;;4.87;;
63664;SDS011;49820;33.966;73.390;2023-09-19T07:29:04;7.10;;;5.60;;
63664;SDS011;49820;33.966;73.390;2023-09-19T07:31:35;8.15;;;5.95;;
63664;SDS011;49820;33.966;73.390;2023-09-19T07:34:04;8.30;;;5.38;;
63664;SDS011;49820;33.966;73.390;2023-09-19T07:36:35;8.07;;;6.05;;
63664;SDS011;49820;33.966;73.390;2023-09-19T07:39:06;8.55;;;5.97;;
63664;SDS011;49820;33.966;73.390;2023-09-19T07:41:52;7.53;;;5.30;;
63664;SDS011;49820;33.966;73.390;2023-09-19T07:44:22;6.80;;;5.37;;
63664;SDS011;49820;33.966;73.390;2023-09-19T07:46:54;7.22;;;5.30;;
63664;SDS011;49820;33.966;73.390;2023-09-19T07:49:23;8.38;;;5.38;;
63664;SDS011;49820;33.966;73.390;2023-09-19T07:51:52;7.80;;;5.70;;
63664;SDS011;49820;33.966;73.390;2023-09-19T07:54:22;9.52;;;5.43;;
63664;SDS011;49820;33.966;73.390;2023-09-19T07:56:52;7.35;;;6.00;;
63664;SDS011;49820;33.966;73.390;2023-09-19T07:59:23;8.10;;;5.83;;
63664;SDS011;49820;33.966;73.390;2023-09-19T08:02:08;9.25;;;5.63;;
63664;SDS011;49820;33.966;73.390;2023-09-19T08:04:44;7.80;;;5.80;;
63664;SDS011;49820;33.966;73.390;2023-09-19T08:07:17;8.38;;;5.65;;
63664;SDS011;49820;33.966;73.390;2023-09-19T08:09:46;7.43;;;5.20;;
63664;SDS011;49820;33.966;73.390;2023-09-19T08:12:17;9.57;;;5.15;;
63664;SDS011;49820;33.966;73.390;2023-09-19T08:14:48;7.00;;;5.18;;
63664;SDS011;49820;33.966;73.390;2023-09-19T08:17:18;8.77;;;5.50;;
63664;SDS011;49820;33.966;73.390;2023-09-19T08:20:23;7.05;;;4.75;;
63664;SDS011;49820;33.966;73.390;2023-09-19T08:22:53;6.93;;;5.07;;
63664;SDS011;49820;33.966;73.390;2023-09-19T08:26:18;7.75;;;5.38;;
63664;SDS011;49820;33.966;73.390;2023-09-19T08:28:48;7.72;;;5.30;;
63664;SDS011;49820;33.966;73.390;2023-09-19T08:31:19;6.95;;;4.63;;
63664;SDS011;49820;33.966;73.390;2023-09-19T08:33:49;7.55;;;4.90;;
63664;SDS011;49820;33.966;73.390;2023-09-19T08:36:20;8.20;;;5.28;;
63664;SDS011;49820;33.966;73.390;2023-09-19T08:38:49;6.68;;;4.50;;
63664;SDS011;49820;33.966;73.390;2023-09-19T08:41:19;6.18;;;4.50;;
63664;SDS011;49820;33.966;73.390;2023-09-19T08:43:49;6.07;;;5.03;;
63664;SDS011;49820;33.966;73.390;2023-09-19T08:49:36;7.00;;;5.33;;
63664;SDS011;49820;33.966;73.390;2023-09-19T08:52:20;7.30;;;5.32;;
63664;SDS011;49820;33.966;73.390;2023-09-19T08:54:58;5.68;;;4.10;;
63664;SDS011;49820;33.966;73.390;2023-09-19T08:57:33;6.73;;;4.67;;
63664;SDS011;49820;33.966;73.390;2023-09-19T09:00:10;6.10;;;4.47;;
63664;SDS011;49820;33.966;73.390;2023-09-19T09:02:43;5.80;;;4.70;;
63664;SDS011;49820;33.966;73.390;2023-09-19T09:05:13;6.95;;;4.47;;
63664;SDS011;49820;33.966;73.390;2023-09-19T09:07:44;7.13;;;4.57;;
63664;SDS011;49820;33.966;73.390;2023-09-19T09:10:22;6.75;;;4.45;;
63664;SDS011;49820;33.966;73.390;2023-09-19T09:12:53;7.07;;;5.03;;
63664;SDS011;49820;33.966;73.390;2023-09-19T09:15:26;6.72;;;4.82;;
63664;SDS011;49820;33.966;73.390;2023-09-19T09:18:01;5.80;;;4.35;;
63664;SDS011;49820;33.966;73.390;2023-09-19T09:20:34;6.70;;;5.05;;
63664;SDS011;49820;33.966;73.390;2023-09-19T09:23:04;8.13;;;6.13;;
63664;SDS011;49820;33.966;73.390;2023-09-19T09:28:44;6.75;;;3.92;;
63664;SDS011;49820;33.966;73.390;2023-09-19T09:31:23;6.97;;;4.63;;
63664;SDS011;49820;33.966;73.390;2023-09-19T09:33:55;6.07;;;3.95;;
63664;SDS011;49820;33.966;73.390;2023-09-19T09:36:36;6.43;;;4.60;;
63664;SDS011;49820;33.966;73.390;2023-09-19T09:39:10;8.27;;;4.83;;
63664;SDS011;49820;33.966;73.390;2023-09-19T09:41:53;6.68;;;4.20;;
63664;SDS011;49820;33.966;73.390;2023-09-19T09:44:24;5.38;;;4.05;;
63664;SDS011;49820;33.966;73.390;2023-09-19T09:46:56;6.18;;;3.95;;
63664;SDS011;49820;33.966;73.390;2023-09-19T09:49:48;5.90;;;3.95;;
63664;SDS011;49820;33.966;73.390;2023-09-19T09:52:22;5.60;;;4.13;;
63664;SDS011;49820;33.966;73.390;2023-09-19T09:55:00;6.20;;;4.60;;
63664;SDS011;49820;33.966;73.390;2023-09-19T09:57:36;5.10;;;4.07;;
63664;SDS011;49820;33.966;73.390;2023-09-19T10:00:09;5.53;;;4.07;;
63664;SDS011;49820;33.966;73.390;2023-09-19T10:02:43;5.95;;;4.30;;
63664;SDS011;49820;33.966;73.390;2023-09-19T10:05:19;7.47;;;4.53;;
63664;SDS011;49820;33.966;73.390;2023-09-19T10:07:58;7.10;;;4.45;;
63664;SDS011;49820;33.966;73.390;2023-09-19T10:10:47;6.03;;;4.57;;
63664;SDS011;49820;33.966;73.390;2023-09-19T10:13:21;6.47;;;4.18;;
63664;SDS011;49820;33.966;73.390;2023-09-19T10:15:54;5.63;;;4.38;;
63664;SDS011;49820;33.966;73.390;2023-09-19T10:18:27;5.95;;;4.53;;
63664;SDS011;49820;33.966;73.390;2023-09-19T10:20:58;6.15;;;4.47;;
63664;SDS011;49820;33.966;73.390;2023-09-19T10:23:33;6.88;;;4.30;;
63664;SDS011;49820;33.966;73.390;2023-09-19T10:26:06;5.77;;;4.60;;
63664;SDS011;49820;33.966;73.390;2023-09-19T10:28:38;6.10;;;4.30;;
63664;SDS011;49820;33.966;73.390;2023-09-19T10:31:09;6.32;;;3.90;;
63664;SDS011;49820;33.966;73.390;2023-09-19T10:33:43;5.85;;;4.53;;
63664;SDS011;49820;33.966;73.390;2023-09-19T10:36:13;5.15;;;4.55;;
63664;SDS011;49820;33.966;73.390;2023-09-19T10:38:44;7.97;;;5.07;;
63664;SDS011;49820;33.966;73.390;2023-09-19T10:41:17;6.97;;;4.88;;
63664;SDS011;49820;33.966;73.390;2023-09-19T10:43:49;8.13;;;5.67;;
63664;SDS011;49820;33.966;73.390;2023-09-19T10:46:23;6.25;;;4.75;;
63664;SDS011;49820;33.966;73.390;2023-09-19T10:48:54;7.78;;;5.35;;
63664;SDS011;49820;33.966;73.390;2023-09-19T10:51:30;7.60;;;6.07;;
63664;SDS011;49820;33.966;73.390;2023-09-19T10:54:10;8.33;;;5.67;;
63664;SDS011;49820;33.966;73.390;2023-09-19T10:56:46;7.05;;;5.57;;
63664;SDS011;49820;33.966;73.390;2023-09-19T10:59:21;6.43;;;5.15;;
63664;SDS011;49820;33.966;73.390;2023-09-19T11:01:53;6.78;;;5.20;;
63664;SDS011;49820;33.966;73.390;2023-09-19T11:07:07;6.97;;;5.32;;
63664;SDS011;49820;33.966;73.390;2023-09-19T11:09:51;6.57;;;4.70;;
63664;SDS011;49820;33.966;73.390;2023-09-19T11:15:01;5.93;;;4.93;;
63664;SDS011;49820;33.966;73.390;2023-09-19T11:17:39;7.13;;;5.13;;
63664;SDS011;49820;33.966;73.390;2023-09-19T11:30:49;5.07;;;4.05;;
63664;SDS011;49820;33.966;73.390;2023-09-19T11:33:32;6.13;;;4.30;;
63664;SDS011;49820;33.966;73.390;2023-09-19T11:36:05;6.07;;;3.83;;
63664;SDS011;49820;33.966;73.390;2023-09-19T11:47:14;5.27;;;3.70;;
63664;SDS011;49820;33.966;73.390;2023-09-19T11:49:31;6.38;;;4.10;;
63664;SDS011;49820;33.966;73.390;2023-09-19T11:52:02;5.07;;;3.80;;
63664;SDS011;49820;33.966;73.390;2023-09-19T11:54:37;5.97;;;3.87;;
63664;SDS011;49820;33.966;73.390;2023-09-19T11:57:09;5.25;;;3.53;;
63664;SDS011;49820;33.966;73.390;2023-09-19T11:59:40;4.70;;;3.65;;
63664;SDS011;49820;33.966;73.390;2023-09-19T12:02:39;5.18;;;3.60;;
63664;SDS011;49820;33.966;73.390;2023-09-19T12:05:15;5.60;;;4.07;;
63664;SDS011;49820;33.966;73.390;2023-09-19T12:07:45;5.45;;;3.75;;
63664;SDS011;49820;33.966;73.390;2023-09-19T12:10:16;6.30;;;4.60;;
63664;SDS011;49820;33.966;73.390;2023-09-19T12:12:49;6.05;;;3.95;;
63664;SDS011;49820;33.966;73.390;2023-09-19T12:15:27;7.07;;;3.80;;
63664;SDS011;49820;33.966;73.390;2023-09-19T12:18:02;6.47;;;4.05;;
63664;SDS011;49820;33.966;73.390;2023-09-19T12:20:43;5.57;;;4.00;;
63664;SDS011;49820;33.966;73.390;2023-09-19T12:23:17;5.53;;;4.00;;
63664;SDS011;49820;33.966;73.390;2023-09-19T12:25:48;4.83;;;4.13;;
63664;SDS011;49820;33.966;73.390;2023-09-19T12:28:21;4.60;;;3.72;;
63664;SDS011;49820;33.966;73.390;2023-09-19T12:31:08;5.80;;;4.32;;
